Time;durP1;ratioP1;P1;durP2;ratioP2;P2;SDS_P1;SDS_P2;PMS_P1;PMS_P2;Temp;Humidity;BMP_temperature;BMP_pressure;BME280_temperature;BME280_humidity;BME280_pressure;Samples;Min_cycle;Max_cycle;Signal;HPM_P1;HPM_P2
2020/12/02 00:02:15;;;;;;;;;;;;;;;1.23;81.87;101743.27;1584412;90;20183;-81
2020/12/02 00:04:41;;;;;;;;;;;;;;;1.22;81.82;101744.95;1565109;89;20298;-81
2020/12/02 00:07:08;;;;;;;;;;;;;;;1.22;81.84;101744.08;1580049;89;21277;-81
2020/12/02 00:09:34;;;;;;;;;;;;;;;1.22;81.84;101741.13;1582131;89;20616;-80
2020/12/02 00:11:59;;;;;;;;;;;;;;;1.22;81.86;101746.63;1579335;89;20174;-81
2020/12/02 00:14:28;;;;;;;;;;;;;;;1.21;81.84;101741.06;1581175;89;20244;-81
2020/12/02 00:16:54;;;;;;;;;;;;;;;1.20;81.83;101742.73;1591999;89;20308;-81
2020/12/02 00:19:19;;;;;;;;;;;;;;;1.17;81.79;101741.34;1570203;89;22473;-81
2020/12/02 00:22:07;;;;;;;;;;;;;;;1.16;81.82;101743.83;1549129;90;20271;-81
2020/12/02 00:24:33;;;;;;;;;;;;;;;1.17;81.86;101743.02;1582753;89;20290;-81
2020/12/02 00:27:02;;;;;;;;;;;;;;;1.16;81.85;101734.51;1571105;89;20503;-81
2020/12/02 00:29:28;;;;;;;;;;;;;;;1.15;81.81;101731.50;1596277;89;20683;-81
2020/12/02 00:31:54;;;;;;;;;;;;;;;1.12;81.84;101728.83;1584899;89;21204;-81
2020/12/02 00:34:19;;;;;;;;;;;;;;;1.13;81.87;101736.93;1584184;89;20859;-81
2020/12/02 00:36:45;;;;;;;;;;;;;;;1.14;81.89;101737.40;1584323;89;20211;-81
2020/12/02 00:39:11;;;;;;;;;;;;;;;1.14;81.89;101737.40;1582120;89;20175;-81
2020/12/02 00:41:36;;;;;;;;;;;;;;;1.11;81.81;101738.55;1574526;90;20250;-81
2020/12/02 00:44:03;;;;;;;;;;;;;;;1.09;81.85;101740.56;1584526;89;21271;-81
2020/12/02 00:46:29;;;;;;;;;;;;;;;1.10;81.86;101745.72;1584341;89;20204;-81
2020/12/02 00:48:54;;;;;;;;;;;;;;;1.09;81.87;101738.02;1574240;89;20179;-81
2020/12/02 00:51:20;;;;;;;;;;;;;;;1.07;81.83;101745.59;1593483;89;20231;-82
2020/12/02 00:53:47;;;;;;;;;;;;;;;1.05;81.84;101736.16;1572583;89;20583;-81
2020/12/02 00:56:13;;;;;;;;;;;;;;;1.05;81.85;101747.22;1581343;89;21282;-81
2020/12/02 00:59:08;;;;;;;;;;;;;;;1.04;81.87;101744.20;1567666;89;20589;-81
2020/12/02 01:01:43;;;;;;;;;;;;;;;1.02;81.84;101736.06;1563510;89;20309;-81
2020/12/02 01:04:14;;;;;;;;;;;;;;;0.99;81.86;101741.50;1593141;88;20301;-81
2020/12/02 01:06:40;;;;;;;;;;;;;;;0.99;81.90;101735.53;1601655;88;20855;-81
2020/12/02 01:09:06;;;;;;;;;;;;;;;0.97;81.90;101732.92;1600803;87;21192;-81
2020/12/02 01:11:32;;;;;;;;;;;;;;;0.99;81.92;101734.27;1605900;87;20523;-81
2020/12/02 01:14:00;;;;;;;;;;;;;;;0.97;81.89;101726.56;1593382;87;20224;-81
2020/12/02 01:16:29;;;;;;;;;;;;;;;0.98;81.94;101730.84;1570620;89;20297;-81
2020/12/02 01:18:56;;;;;;;;;;;;;;;0.98;81.89;101733.80;1612418;87;20283;-81
2020/12/02 01:21:36;;;;;;;;;;;;;;;0.97;81.90;101732.05;1573397;88;21106;-81
2020/12/02 01:24:12;;;;;;;;;;;;;;;0.96;81.88;101735.01;1585383;88;20289;-81
2020/12/02 01:26:54;;;;;;;;;;;;;;;0.92;81.88;101733.14;1583103;88;20297;-81
2020/12/02 01:29:22;;;;;;;;;;;;;;;0.91;81.90;101733.08;1588619;88;20270;-81
2020/12/02 01:31:50;;;;;;;;;;;;;;;0.91;81.94;101733.08;1614876;87;20288;-81
2020/12/02 01:34:17;;;;;;;;;;;;;;;0.91;81.93;101726.72;1613630;87;22985;-80
2020/12/02 01:37:07;;;;;;;;;;;;;;;0.91;81.92;101729.26;1611665;88;20433;-80
2020/12/02 01:39:37;;;;;;;;;;;;;;;0.87;81.89;101729.94;1574494;88;20701;-80
2020/12/02 01:42:04;;;;;;;;;;;;;;;0.87;81.91;101724.84;1585137;88;20271;-80
2020/12/02 01:44:30;;;;;;;;;;;;;;;0.87;81.96;101724.45;1578320;87;20299;-81
2020/12/02 01:47:08;;;;;;;;;;;;;;;0.89;81.89;101727.05;1596813;88;21233;-81
2020/12/02 01:49:43;;;;;;;;;;;;;;;0.87;81.90;101719.75;1588229;88;20302;-81
2020/12/02 01:52:32;;;;;;;;;;;;;;;0.86;81.91;101720.56;1596868;88;20206;-81
2020/12/02 01:55:00;;;;;;;;;;;;;;;0.86;81.91;101721.84;1559436;88;20270;-81
2020/12/02 01:57:30;;;;;;;;;;;;;;;0.85;81.90;101718.83;1583223;88;20283;-81
2020/12/02 02:00:02;;;;;;;;;;;;;;;0.85;81.88;101718.83;1597141;88;22698;-81
2020/12/02 02:02:43;;;;;;;;;;;;;;;0.84;81.89;101719.23;1596952;88;20286;-81
2020/12/02 02:05:29;;;;;;;;;;;;;;;0.82;81.77;101718.70;1571002;88;20225;-81
2020/12/02 02:07:55;;;;;;;;;;;;;;;0.82;81.85;101719.97;1576198;90;20283;-81
2020/12/02 02:10:31;;;;;;;;;;;;;;;0.82;81.85;101717.42;1567939;90;20268;-81
2020/12/02 02:13:01;;;;;;;;;;;;;;;0.79;81.80;101722.39;1552573;90;21118;-81
2020/12/02 02:15:48;;;;;;;;;;;;;;;0.77;81.75;101717.63;1582415;90;20307;-81
2020/12/02 02:18:24;;;;;;;;;;;;;;;0.76;81.84;101719.31;1561019;90;20297;-81
2020/12/02 02:20:53;;;;;;;;;;;;;;;0.75;81.83;101717.98;1557878;90;20289;-81
2020/12/02 02:23:19;;;;;;;;;;;;;;;0.75;81.84;101720.52;1570010;90;20325;-81
2020/12/02 02:26:11;;;;;;;;;;;;;;;0.74;81.83;101721.33;1564870;90;21244;-81
2020/12/02 02:28:39;;;;;;;;;;;;;;;0.76;81.86;101720.59;1568454;90;20278;-81
2020/12/02 02:31:08;;;;;;;;;;;;;;;0.74;81.81;101725.14;1551569;90;20296;-81
2020/12/02 02:33:34;;;;;;;;;;;;;;;0.74;81.87;101727.29;1569823;90;20279;-81
2020/12/02 02:36:00;;;;;;;;;;;;;;;0.76;81.85;101724.41;1569971;90;20243;-81
2020/12/02 02:38:25;;;;;;;;;;;;;;;0.73;81.80;101728.09;1564775;90;21803;-81
2020/12/02 02:40:51;;;;;;;;;;;;;;;0.73;81.79;101733.59;1552760;90;20183;-81
2020/12/02 02:43:17;;;;;;;;;;;;;;;0.70;81.79;101727.09;1562882;90;20757;-81
2020/12/02 02:45:43;;;;;;;;;;;;;;;0.71;81.84;101730.98;1562319;90;20268;-81
2020/12/02 02:48:08;;;;;;;;;;;;;;;0.70;81.81;101728.37;1570273;90;20239;-81
2020/12/02 02:50:35;;;;;;;;;;;;;;;0.70;81.85;101725.83;1570558;90;22457;-81
2020/12/02 02:53:03;;;;;;;;;;;;;;;0.71;81.85;101723.34;1559130;90;20297;-81
2020/12/02 02:55:29;;;;;;;;;;;;;;;0.71;81.77;101712.29;1568081;90;20322;-81
2020/12/02 02:57:55;;;;;;;;;;;;;;;0.67;81.75;101717.66;1567024;90;20214;-81
2020/12/02 03:00:25;;;;;;;;;;;;;;;0.67;81.83;101716.39;1559872;90;20260;-81
2020/12/02 03:02:51;;;;;;;;;;;;;;;0.69;81.81;101712.63;1567747;88;21228;-81
2020/12/02 03:05:17;;;;;;;;;;;;;;;0.70;81.84;101710.55;1555241;90;20287;-81
2020/12/02 03:07:43;;;;;;;;;;;;;;;0.71;81.85;101709.75;1584584;88;20280;-81
2020/12/02 03:10:14;;;;;;;;;;;;;;;0.71;81.84;101706.80;1587309;89;20265;-81
2020/12/02 03:12:41;;;;;;;;;;;;;;;0.73;81.84;101709.41;1586052;88;20285;-81
2020/12/02 03:15:08;;;;;;;;;;;;;;;0.71;81.85;101701.70;1609733;88;20691;-81
2020/12/02 03:17:35;;;;;;;;;;;;;;;0.70;81.79;101703.78;1603086;87;20710;-81
2020/12/02 03:20:07;;;;;;;;;;;;;;;0.69;81.80;101704.99;1585998;88;20286;-81
2020/12/02 03:22:34;;;;;;;;;;;;;;;0.67;81.85;101703.66;1604956;85;145158;-82
2020/12/02 03:25:01;;;;;;;;;;;;;;;0.65;81.78;101699.77;1641786;87;20574;-81
2020/12/02 03:27:26;;;;;;;;;;;;;;;0.65;81.87;101709.95;1651629;87;21243;-81
2020/12/02 03:29:52;;;;;;;;;;;;;;;0.64;81.85;101713.31;1646869;87;20274;-81
2020/12/02 03:32:19;;;;;;;;;;;;;;;0.64;81.83;101714.98;1661633;84;20194;-81
2020/12/02 03:34:45;;;;;;;;;;;;;;;0.60;81.73;101713.12;1645034;86;20254;-81
2020/12/02 03:37:11;;;;;;;;;;;;;;;0.55;81.69;101713.33;1638952;86;20217;-81
2020/12/02 03:39:36;;;;;;;;;;;;;;;0.53;81.85;101703.48;1634904;86;21140;-81
2020/12/02 03:42:03;;;;;;;;;;;;;;;0.53;81.89;101705.63;1655948;85;20830;-81
2020/12/02 03:44:29;;;;;;;;;;;;;;;0.56;81.88;101704.88;1672729;85;20249;-81
2020/12/02 03:46:55;;;;;;;;;;;;;;;0.57;81.88;101707.89;1672553;85;21088;-81
2020/12/02 03:49:20;;;;;;;;;;;;;;;0.56;81.83;101708.30;1672773;85;20291;-81
2020/12/02 03:51:46;;;;;;;;;;;;;;;0.55;81.83;101709.11;1665580;85;21274;-81
2020/12/02 03:54:12;;;;;;;;;;;;;;;0.55;81.87;101709.51;1673938;85;20168;-81
2020/12/02 03:56:37;;;;;;;;;;;;;;;0.55;81.89;101705.28;1672590;85;20241;-81
2020/12/02 03:59:03;;;;;;;;;;;;;;;0.56;81.90;101708.30;1672610;85;20787;-82
2020/12/02 04:01:29;;;;;;;;;;;;;;;0.59;81.93;101708.83;1657421;85;20225;-81
2020/12/02 04:03:54;;;;;;;;;;;;;;;0.56;81.81;101701.94;1660900;85;21341;-81
2020/12/02 04:06:20;;;;;;;;;;;;;;;0.56;81.85;101703.61;1673121;84;20203;-81
2020/12/02 04:08:46;;;;;;;;;;;;;;;0.57;81.90;101698.98;1662340;85;20234;-81
2020/12/02 04:11:14;;;;;;;;;;;;;;;0.56;81.85;101701.06;1650603;85;21157;-81
2020/12/02 04:13:39;;;;;;;;;;;;;;;0.53;81.84;101706.03;1608603;87;20281;-82
2020/12/02 04:16:05;;;;;;;;;;;;;;;0.53;81.84;101711.98;1667611;86;22108;-82
2020/12/02 04:18:31;;;;;;;;;;;;;;;0.51;81.79;101712.36;1668737;86;20263;-81
2020/12/02 04:20:57;;;;;;;;;;;;;;;0.50;81.85;101714.84;1660187;85;20201;-82
2020/12/02 04:23:23;;;;;;;;;;;;;;;0.49;81.85;101708.88;1647435;85;20184;-81
2020/12/02 04:25:49;;;;;;;;;;;;;;;0.46;81.78;101708.75;1645512;86;20284;-81
2020/12/02 04:28:15;;;;;;;;;;;;;;;0.42;81.82;101709.83;1662613;84;21222;-82
2020/12/02 04:30:43;;;;;;;;;;;;;;;0.42;81.92;101710.69;1662949;86;20279;-81
2020/12/02 04:33:10;;;;;;;;;;;;;;;0.45;81.95;101715.91;1666501;84;20279;-81
2020/12/02 04:35:36;;;;;;;;;;;;;;;0.47;81.94;101718.13;1662072;85;20654;-81
2020/12/02 04:38:02;;;;;;;;;;;;;;;0.46;81.82;101711.30;1648830;86;20300;-81
2020/12/02 04:40:34;;;;;;;;;;;;;;;0.44;81.88;101711.63;1666017;86;21169;-81
2020/12/02 04:43:03;;;;;;;;;;;;;;;0.44;81.89;101712.91;1665975;85;20267;-81
2020/12/02 04:45:30;;;;;;;;;;;;;;;0.45;81.91;101714.64;1628912;86;20261;-81
2020/12/02 04:47:59;;;;;;;;;;;;;;;0.44;81.92;101719.27;1667034;86;20516;-81
2020/12/02 04:50:28;;;;;;;;;;;;;;;0.45;81.90;101710.83;1667698;86;20267;-81
2020/12/02 04:53:09;;;;;;;;;;;;;;;0.45;81.88;101711.23;1666317;85;21419;-81
2020/12/02 04:55:34;;;;;;;;;;;;;;;0.44;81.88;101712.91;1668965;86;20195;-81
2020/12/02 04:58:00;;;;;;;;;;;;;;;0.42;81.87;101711.09;1655186;85;20773;-81
2020/12/02 05:00:32;;;;;;;;;;;;;;;0.38;81.87;101711.37;1662388;86;20789;-81
2020/12/02 05:03:13;;;;;;;;;;;;;;;0.37;81.87;101715.98;1664244;86;20256;-81
2020/12/02 05:05:39;;;;;;;;;;;;;;;0.34;81.86;101714.58;1667270;86;21336;-81
2020/12/02 05:08:23;;;;;;;;;;;;;;;0.31;81.83;101710.64;1655483;86;20186;-81
2020/12/02 05:10:50;;;;;;;;;;;;;;;0.28;81.86;101707.96;1645897;85;20262;-81
2020/12/02 05:13:15;;;;;;;;;;;;;;;0.27;81.88;101713.84;1660659;86;20973;-81
2020/12/02 05:15:41;;;;;;;;;;;;;;;0.26;81.88;101718.06;1659195;86;20265;-81
2020/12/02 05:18:16;;;;;;;;;;;;;;;0.27;81.91;101710.03;1668656;86;21274;-81
2020/12/02 05:20:43;;;;;;;;;;;;;;;0.22;81.80;101711.11;1667841;85;20279;-81
2020/12/02 05:23:18;;;;;;;;;;;;;;;0.17;81.82;101710.03;1666012;86;20267;-81
2020/12/02 05:25:44;;;;;;;;;;;;;;;0.15;81.83;101703.14;1664454;85;20452;-82
2020/12/02 05:28:16;;;;;;;;;;;;;;;0.09;81.76;101705.02;1654175;85;20296;-80
2020/12/02 05:30:42;;;;;;;;;;;;;;;0.07;81.87;101710.84;1657100;86;21281;-80
2020/12/02 05:33:17;;;;;;;;;;;;;;;0.07;81.87;101709.56;1650397;86;20365;-80
2020/12/02 05:35:52;;;;;;;;;;;;;;;0.04;81.84;101717.93;1663416;86;20280;-80
2020/12/02 05:38:21;;;;;;;;;;;;;;;-0.01;81.84;101719.03;1663356;85;20267;-80
2020/12/02 05:40:49;;;;;;;;;;;;;;;-0.03;81.86;101715.55;1657900;86;20253;-80
2020/12/02 05:43:24;;;;;;;;;;;;;;;-0.05;81.85;101721.36;1625276;86;21204;-80
2020/12/02 05:45:51;;;;;;;;;;;;;;;-0.07;81.84;101716.61;1653064;84;20294;-79
2020/12/02 05:48:23;;;;;;;;;;;;;;;-0.07;81.94;101714.94;1661503;86;20581;-79
2020/12/02 05:50:51;;;;;;;;;;;;;;;-0.07;81.91;101711.53;1660956;86;20274;-79
2020/12/02 05:53:34;;;;;;;;;;;;;;;-0.09;81.83;101719.48;1646958;86;20283;-80
2020/12/02 05:56:01;;;;;;;;;;;;;;;-0.10;81.89;101714.80;1639125;86;21420;-80
2020/12/02 05:58:29;;;;;;;;;;;;;;;-0.14;81.82;101715.47;1624416;87;20281;-80
2020/12/02 06:00:56;;;;;;;;;;;;;;;-0.18;81.83;101709.78;1632643;86;20288;-80
2020/12/02 06:03:25;;;;;;;;;;;;;;;-0.19;81.88;101708.03;1660921;85;20450;-80
2020/12/02 06:05:50;;;;;;;;;;;;;;;-0.20;81.83;101716.46;1662772;86;20568;-80
2020/12/02 06:08:31;;;;;;;;;;;;;;;-0.21;81.90;101716.39;1645378;85;20539;-80
2020/12/02 06:10:59;;;;;;;;;;;;;;;-0.20;81.95;101711.37;1612500;88;20315;-79
2020/12/02 06:13:40;;;;;;;;;;;;;;;-0.19;81.94;101709.30;1614472;87;20464;-81
2020/12/02 06:16:06;;;;;;;;;;;;;;;-0.23;81.77;101712.52;1618790;86;20508;-80
2020/12/02 06:18:35;;;;;;;;;;;;;;;-0.26;81.87;101712.77;1610976;88;20242;-80
2020/12/02 06:21:02;;;;;;;;;;;;;;;-0.28;81.85;101711.83;1625955;86;21380;-80
2020/12/02 06:23:46;;;;;;;;;;;;;;;-0.30;81.87;101717.24;1626886;88;20762;-79
2020/12/02 06:26:12;;;;;;;;;;;;;;;-0.28;81.96;101715.24;1618302;87;20291;-81
2020/12/02 06:28:41;;;;;;;;;;;;;;;-0.27;81.93;101711.03;1625900;86;20288;-81
2020/12/02 06:31:25;;;;;;;;;;;;;;;-0.28;81.83;101711.83;1627244;86;20256;-81
2020/12/02 06:33:51;;;;;;;;;;;;;;;-0.34;81.81;101727.27;1625789;86;21315;-80
2020/12/02 06:36:23;;;;;;;;;;;;;;;-0.36;81.81;101718.70;1630534;87;20250;-80
2020/12/02 06:38:54;;;;;;;;;;;;;;;-0.41;81.74;101716.75;1609708;86;20262;-80
2020/12/02 06:41:32;;;;;;;;;;;;;;;-0.49;81.74;101714.26;1629577;86;21047;-81
2020/12/02 06:44:10;;;;;;;;;;;;;;;-0.50;81.88;101722.68;1633145;86;20248;-80
2020/12/02 06:46:58;;;;;;;;;;;;;;;-0.50;81.89;101715.92;1632799;87;22554;-80
2020/12/02 06:49:27;;;;;;;;;;;;;;;-0.52;81.87;101720.06;1630742;87;20266;-80
2020/12/02 06:51:58;;;;;;;;;;;;;;;-0.55;81.80;101722.89;1630166;86;20176;-80
2020/12/02 06:54:25;;;;;;;;;;;;;;;-0.58;81.83;101720.21;1626294;86;20268;-81
2020/12/02 06:56:57;;;;;;;;;;;;;;;-0.62;81.80;101721.73;1619904;86;20274;-80
2020/12/02 06:59:23;;;;;;;;;;;;;;;-0.65;81.82;101721.99;1630943;87;21425;-81
2020/12/02 07:01:48;;;;;;;;;;;;;;;-0.67;81.84;101724.06;1622875;86;20266;-81
2020/12/02 07:04:23;;;;;;;;;;;;;;;-0.67;81.94;101720.65;1627952;85;20240;-81
2020/12/02 07:06:59;;;;;;;;;;;;;;;-0.65;81.97;101720.33;1620749;86;20382;-80
2020/12/02 07:09:25;;;;;;;;;;;;;;;-0.65;81.93;101730.48;1618813;86;20263;-82
2020/12/02 07:11:56;;;;;;;;;;;;;;;-0.63;81.98;101721.67;1636865;86;21970;-78
2020/12/02 07:14:31;;;;;;;;;;;;;;;-0.59;81.97;101718.47;1626755;87;20564;-81
2020/12/02 07:16:59;;;;;;;;;;;;;;;-0.59;81.94;101712.99;1627027;87;20264;-80
2020/12/02 07:19:29;;;;;;;;;;;;;;;-0.60;81.87;101721.81;1623449;87;20266;-80
2020/12/02 07:21:57;;;;;;;;;;;;;;;-0.58;81.95;101722.75;1625154;86;20260;-80
2020/12/02 07:24:36;;;;;;;;;;;;;;;-0.59;81.94;101711.72;1626937;86;21253;-77
2020/12/02 07:27:03;;;;;;;;;;;;;;;-0.58;81.88;101711.32;1629014;87;20333;-78
2020/12/02 07:29:29;;;;;;;;;;;;;;;-0.58;81.91;101716.00;1620324;87;20295;-78
2020/12/02 07:32:04;;;;;;;;;;;;;;;-0.55;81.97;101715.28;1628645;86;21135;-77
2020/12/02 07:34:31;;;;;;;;;;;;;;;-0.51;81.98;101705.70;1624333;86;20292;-77
2020/12/02 07:37:02;;;;;;;;;;;;;;;-0.51;81.84;101699.34;1620510;86;21457;-77
2020/12/02 07:39:29;;;;;;;;;;;;;;;-0.52;81.87;101707.36;1607981;85;20258;-77
2020/12/02 07:42:19;;;;;;;;;;;;;;;-0.51;81.85;101698.95;1608611;87;20271;-77
2020/12/02 07:44:58;;;;;;;;;;;;;;;-0.51;81.91;101700.22;1611567;87;20261;-78
2020/12/02 07:47:23;;;;;;;;;;;;;;;-0.52;81.81;101701.02;1612912;87;20250;-77
2020/12/02 07:50:02;;;;;;;;;;;;;;;-0.57;81.80;101694.88;1556182;87;5378891;-78
2020/12/02 07:52:31;;;;;;;;;;;;;;;-0.59;81.79;101704.50;1637660;87;20180;-78
2020/12/02 07:54:57;;;;;;;;;;;;;;;-0.59;81.83;101705.77;1641343;87;20255;-77
2020/12/02 07:57:25;;;;;;;;;;;;;;;-0.60;81.81;101704.03;1628010;87;20562;-78
2020/12/02 08:00:28;;;;;;;;;;;;;;;-0.61;81.84;101698.48;1633770;87;20852;-78
2020/12/02 08:02:54;;;;;;;;;;;;;;;-0.63;81.84;101701.34;1532712;92;21177;-77
2020/12/02 08:05:35;;;;;;;;;;;;;;;-0.60;81.92;101696.01;1533795;91;20273;-77
2020/12/02 08:08:01;;;;;;;;;;;;;;;-0.57;81.86;101694.88;1487587;94;20308;-78
2020/12/02 08:10:31;;;;;;;;;;;;;;;-0.61;81.82;101693.00;1515858;93;21103;-77
2020/12/02 08:12:57;;;;;;;;;;;;;;;-0.61;81.84;101694.27;1563842;90;20964;-77
2020/12/02 08:15:23;;;;;;;;;;;;;;;-0.60;81.79;101692.20;1562447;90;21186;-77
2020/12/02 08:18:04;;;;;;;;;;;;;;;-0.65;81.78;101696.20;1564534;90;20255;-77
2020/12/02 08:20:33;;;;;;;;;;;;;;;-0.65;81.81;101699.13;1562716;90;20293;-77
2020/12/02 08:23:03;;;;;;;;;;;;;;;-0.65;81.89;101696.20;1564311;91;20323;-77
2020/12/02 08:25:47;;;;;;;;;;;;;;;-0.64;81.87;101691.59;1561229;90;20282;-77
2020/12/02 08:28:16;;;;;;;;;;;;;;;-0.60;81.95;101686.25;1564037;90;22055;-78
2020/12/02 08:30:42;;;;;;;;;;;;;;;-0.57;81.91;101692.74;1564644;90;20573;-77
2020/12/02 08:33:10;;;;;;;;;;;;;;;-0.57;81.80;101691.07;1577424;84;20260;-77
2020/12/02 08:35:45;;;;;;;;;;;;;;;-0.60;81.70;101688.79;1651174;85;20269;-78
2020/12/02 08:38:18;;;;;;;;;;;;;;;-0.67;81.70;101692.31;1659921;85;20616;-77
2020/12/02 08:40:49;;;;;;;;;;;;;;;-0.68;81.79;101688.44;1668548;84;21030;-77
2020/12/02 08:43:30;;;;;;;;;;;;;;;-0.65;81.83;101697.86;1667896;84;20259;-78
2020/12/02 08:46:08;;;;;;;;;;;;;;;-0.67;81.81;101696.12;1659445;84;20269;-77
2020/12/02 08:48:34;;;;;;;;;;;;;;;-0.68;81.79;101693.52;1660652;85;20543;-78
2020/12/02 08:51:00;;;;;;;;;;;;;;;-0.70;81.85;101687.09;1669523;85;20271;-78
2020/12/02 08:53:29;;;;;;;;;;;;;;;-0.68;81.85;101691.84;1663074;85;21256;-78
2020/12/02 08:55:56;;;;;;;;;;;;;;;-0.67;81.81;101690.17;1662985;85;20908;-78
2020/12/02 08:58:22;;;;;;;;;;;;;;;-0.67;81.89;101683.42;1664792;85;20251;-75
2020/12/02 09:00:49;;;;;;;;;;;;;;;-0.62;81.89;101699.28;1655829;85;20577;-78
2020/12/02 09:03:15;;;;;;;;;;;;;;;-0.61;81.84;101694.67;1663243;85;20275;-78
2020/12/02 09:05:41;;;;;;;;;;;;;;;-0.61;81.87;101687.05;1647468;85;21297;-78
2020/12/02 09:08:07;;;;;;;;;;;;;;;-0.57;81.96;101688.53;1667392;85;20365;-78
2020/12/02 09:10:32;;;;;;;;;;;;;;;-0.54;81.88;101685.27;1632735;85;20213;-78
2020/12/02 09:12:59;;;;;;;;;;;;;;;-0.54;81.84;101682.72;1629593;87;20207;-78
2020/12/02 09:15:27;;;;;;;;;;;;;;;-0.54;81.74;101684.86;1636804;87;20288;-77
2020/12/02 09:17:54;;;;;;;;;;;;;;;-0.55;81.84;101684.39;1637579;87;21206;-78
2020/12/02 09:20:20;;;;;;;;;;;;;;;-0.52;81.82;101676.05;1628597;87;20250;-78
2020/12/02 09:22:46;;;;;;;;;;;;;;;-0.52;81.74;101670.53;1635228;87;20529;-78
2020/12/02 09:25:12;;;;;;;;;;;;;;;-0.52;81.81;101678.59;1630908;86;20202;-78
2020/12/02 09:27:38;;;;;;;;;;;;;;;-0.48;81.88;101680.03;1636080;87;20234;-78
2020/12/02 09:30:05;;;;;;;;;;;;;;;-0.47;81.76;101676.69;1627050;87;21302;-77
2020/12/02 09:32:31;;;;;;;;;;;;;;;-0.47;81.76;101673.28;1639723;87;20271;-77
2020/12/02 09:34:57;;;;;;;;;;;;;;;-0.47;81.82;101667.80;1632569;87;20213;-78
2020/12/02 09:37:24;;;;;;;;;;;;;;;-0.43;81.85;101669.68;1637774;86;20270;-78
2020/12/02 09:39:50;;;;;;;;;;;;;;;-0.38;81.93;101669.89;1636377;86;20561;-78
2020/12/02 09:42:39;;;;;;;;;;;;;;;-0.35;81.82;101664.94;1638551;87;21179;-79
2020/12/02 09:45:31;;;;;;;;;;;;;;;-0.31;81.85;101667.22;1639389;87;20256;-79
2020/12/02 09:47:59;;;;;;;;;;;;;;;-0.31;81.74;101663.01;1638392;86;20172;-79
2020/12/02 09:50:26;;;;;;;;;;;;;;;-0.34;81.62;101653.58;1637610;87;20619;-78
2020/12/02 09:52:52;;;;;;;;;;;;;;;-0.39;81.58;101655.45;1641282;87;20260;-75
2020/12/02 09:55:20;;;;;;;;;;;;;;;-0.40;81.62;101655.84;1640902;86;21210;-75
2020/12/02 09:57:46;;;;;;;;;;;;;;;-0.43;81.68;101653.56;1622708;87;20275;-76
2020/12/02 10:00:14;;;;;;;;;;;;;;;-0.43;81.69;101650.63;1637087;87;20263;-77
2020/12/02 10:03:04;;;;;;;;;;;;;;;-0.40;81.77;101650.77;1633619;86;20271;-79
2020/12/02 10:05:46;;;;;;;;;;;;;;;-0.38;81.78;101647.02;1587190;88;20635;-78
2020/12/02 10:08:39;;;;;;;;;;;;;;;-0.38;81.76;101641.53;1581291;88;21227;-78
2020/12/02 10:11:11;;;;;;;;;;;;;;;-0.34;81.80;101634.92;1591451;89;20293;-78
2020/12/02 10:13:49;;;;;;;;;;;;;;;-0.32;81.84;101637.13;1587887;89;20324;-78
2020/12/02 10:16:52;;;;;;;;;;;;;;;-0.29;81.75;101633.45;1585323;88;20709;-78
2020/12/02 10:19:36;;;;;;;;;;;;;;;-0.27;81.76;101642.41;1581939;88;20588;-78
2020/12/02 10:22:22;;;;;;;;;;;;;;;-0.26;81.74;101635.26;1593171;89;21230;-78
2020/12/02 10:25:00;;;;;;;;;;;;;;;-0.24;81.81;101635.80;1591422;88;20286;-78
2020/12/02 10:27:38;;;;;;;;;;;;;;;-0.20;81.83;101632.59;1582055;88;20319;-78
2020/12/02 10:30:17;;;;;;;;;;;;;;;-0.19;81.67;101630.52;1590253;88;20298;-78
2020/12/02 10:33:02;;;;;;;;;;;;;;;-0.24;81.47;101628.17;1605072;88;20282;-78
2020/12/02 10:35:29;;;;;;;;;;;;;;;-0.31;81.59;101627.44;1590053;89;21142;-79
2020/12/02 10:37:58;;;;;;;;;;;;;;;-0.33;81.66;101618.88;1616432;87;20261;-78
2020/12/02 10:40:26;;;;;;;;;;;;;;;-0.34;81.66;101615.86;1613122;86;20561;-78
2020/12/02 10:43:04;;;;;;;;;;;;;;;-0.33;81.63;101612.52;1623597;87;20265;-78
2020/12/02 10:45:30;;;;;;;;;;;;;;;-0.37;81.60;101608.11;1628234;87;20298;-78
2020/12/02 10:48:17;;;;;;;;;;;;;;;-0.36;81.68;101605.63;1624015;87;21478;-78
2020/12/02 10:50:43;;;;;;;;;;;;;;;-0.31;81.81;101606.23;1616397;86;20270;-78
2020/12/02 10:53:12;;;;;;;;;;;;;;;-0.30;81.67;101600.35;1620819;87;20701;-76
2020/12/02 10:55:38;;;;;;;;;;;;;;;-0.28;81.75;101598.34;1623463;87;20545;-78
2020/12/02 10:58:18;;;;;;;;;;;;;;;-0.28;81.65;101593.66;1618804;87;20237;-78
2020/12/02 11:00:47;;;;;;;;;;;;;;;-0.31;81.56;101593.53;1615657;87;21179;-78
2020/12/02 11:03:17;;;;;;;;;;;;;;;-0.35;81.57;101588.31;1622271;86;20519;-78
2020/12/02 11:05:45;;;;;;;;;;;;;;;-0.37;81.62;101585.23;1615781;87;20262;-78
2020/12/02 11:08:34;;;;;;;;;;;;;;;-0.38;81.60;101580.95;1630779;86;20276;-78
2020/12/02 11:11:06;;;;;;;;;;;;;;;-0.40;81.62;101578.35;1634747;85;20263;-78
2020/12/02 11:13:54;;;;;;;;;;;;;;;-0.40;81.64;101567.31;1619621;86;20943;-78
2020/12/02 11:16:36;;;;;;;;;;;;;;;-0.41;81.63;101565.58;1625513;87;20274;-78
2020/12/02 11:19:38;;;;;;;;;;;;;;;-0.44;81.63;101565.45;1636617;86;20283;-78
2020/12/02 11:22:39;;;;;;;;;;;;;;;-0.45;81.64;101563.30;1626023;87;20290;-79
2020/12/02 11:25:16;;;;;;;;;;;;;;;-0.46;81.57;101555.62;1633320;86;20258;-78
2020/12/02 11:27:43;;;;;;;;;;;;;;;-0.48;81.59;101552.14;1626705;87;21161;-78
2020/12/02 11:30:16;;;;;;;;;;;;;;;-0.49;81.63;101552.95;1623401;87;20251;-77
2020/12/02 11:33:00;;;;;;;;;;;;;;;-0.50;81.56;101543.58;1632100;86;20239;-78
2020/12/02 11:35:39;;;;;;;;;;;;;;;-0.53;81.57;101540.55;1634681;86;20283;-77
2020/12/02 11:38:14;;;;;;;;;;;;;;;-0.51;81.64;101545.66;1614416;86;20263;-78
2020/12/02 11:41:01;;;;;;;;;;;;;;;-0.53;81.61;101540.55;1639679;86;21445;-78
2020/12/02 11:43:30;;;;;;;;;;;;;;;-0.50;81.66;101542.31;1635098;86;20477;-77
2020/12/02 11:45:56;;;;;;;;;;;;;;;-0.50;81.61;101531.75;1631901;86;20268;-78
2020/12/02 11:48:29;;;;;;;;;;;;;;;-0.51;81.52;101533.83;1622951;87;20261;-78
2020/12/02 11:51:21;;;;;;;;;;;;;;;-0.52;81.59;101528.27;1629848;86;20271;-78
2020/12/02 11:53:56;;;;;;;;;;;;;;;-0.50;81.68;101527.94;1637408;86;21187;-78
2020/12/02 11:56:51;;;;;;;;;;;;;;;-0.52;81.54;101535.06;1641729;87;20549;-78
2020/12/02 11:59:25;;;;;;;;;;;;;;;-0.55;81.57;101521.83;1617895;87;20290;-78
2020/12/02 12:02:04;;;;;;;;;;;;;;;-0.55;81.64;101521.83;1630825;87;20430;-78
2020/12/02 12:04:36;;;;;;;;;;;;;;;-0.53;81.63;101528.24;1638555;87;20563;-77
2020/12/02 12:07:22;;;;;;;;;;;;;;;-0.50;81.67;101520.72;1634096;86;21239;-77
2020/12/02 12:10:11;;;;;;;;;;;;;;;-0.48;81.67;101521.66;1620827;86;20351;-76
2020/12/02 12:12:46;;;;;;;;;;;;;;;-0.45;81.72;101516.70;1625085;86;20278;-76
2020/12/02 12:15:33;;;;;;;;;;;;;;;-0.44;81.61;101507.02;1604974;87;20538;-76
2020/12/02 12:18:03;;;;;;;;;;;;;;;-0.42;81.58;101506.27;1604062;87;20290;-75
2020/12/02 12:20:31;;;;;;;;;;;;;;;-0.40;81.58;101506.34;1632711;87;21088;-75
2020/12/02 12:23:07;;;;;;;;;;;;;;;-0.40;81.54;101505.07;1630516;87;20626;-75
2020/12/02 12:25:35;;;;;;;;;;;;;;;-0.39;81.59;101508.08;1630706;87;20259;-75
2020/12/02 12:28:19;;;;;;;;;;;;;;;-0.39;81.53;101502.59;1629244;86;20267;-75
2020/12/02 12:30:44;;;;;;;;;;;;;;;-0.41;81.49;101491.50;1632144;87;20220;-75
2020/12/02 12:33:34;;;;;;;;;;;;;;;-0.44;81.43;101493.91;1630554;86;21386;-77
2020/12/02 12:36:20;;;;;;;;;;;;;;;-0.45;81.50;101498.92;1632556;87;20885;-78
2020/12/02 12:39:10;;;;;;;;;;;;;;;-0.45;81.54;101483.69;1624432;87;20170;-77
2020/12/02 12:41:42;;;;;;;;;;;;;;;-0.45;81.56;101493.84;1634286;87;20505;-77
2020/12/02 12:44:14;;;;;;;;;;;;;;;-0.47;81.51;101493.78;1627551;87;20247;-77
2020/12/02 12:46:48;;;;;;;;;;;;;;;-0.48;81.49;101494.98;1638273;87;21251;-78
2020/12/02 12:49:16;;;;;;;;;;;;;;;-0.53;81.47;101485.06;1637594;87;20552;-78
2020/12/02 12:51:43;;;;;;;;;;;;;;;-0.57;81.40;101490.81;1633736;87;20276;-78
2020/12/02 12:54:15;;;;;;;;;;;;;;;-0.62;81.41;101487.20;1636358;87;20856;-78
2020/12/02 12:56:43;;;;;;;;;;;;;;;-0.66;81.52;101481.13;1627997;86;20628;-79
2020/12/02 12:59:14;;;;;;;;;;;;;;;-0.65;81.56;101477.78;1632029;87;21328;-78
2020/12/02 13:01:40;;;;;;;;;;;;;;;-0.67;81.50;101472.64;1635600;87;20365;-74
2020/12/02 13:04:08;;;;;;;;;;;;;;;-0.72;81.47;101466.48;1633973;87;20184;-76